Time;durP1;ratioP1;P1;durP2;ratioP2;P2;SDS_P1;SDS_P2;PMS_P1;PMS_P2;Temp;Humidity;BMP_temperature;BMP_pressure;BME280_temperature;BME280_humidity;BME280_pressure;Samples;Min_cycle;Max_cycle;Signal;HPM_P1;HPM_P2
2021/04/04 00:00:40;;;;;;;32.97;17.73;;;5.80;80.10;;;;;;5113226;28;20035;-64
2021/04/04 00:03:06;;;;;;;38.87;18.60;;;5.90;80.00;;;;;;5114009;28;20039;-65
2021/04/04 00:05:31;;;;;;;27.47;13.93;;;6.00;80.00;;;;;;5114134;28;20051;-65
2021/04/04 00:07:57;;;;;;;39.47;18.50;;;6.00;79.80;;;;;;5113725;28;20032;-65
2021/04/04 00:10:23;;;;;;;28.90;12.70;;;6.10;79.80;;;;;;5113920;28;20036;-65
2021/04/04 00:12:49;;;;;;;40.07;17.77;;;6.10;79.70;;;;;;5113464;28;20032;-65
2021/04/04 00:15:16;;;;;;;31.57;15.40;;;6.10;79.70;;;;;;5095703;28;20493;-65
2021/04/04 00:17:41;;;;;;;35.43;12.60;;;6.20;79.90;;;;;;5113826;28;20154;-65
2021/04/04 00:20:10;;;;;;;31.70;12.00;;;6.20;79.60;;;;;;5113148;28;20727;-65
2021/04/04 00:22:36;;;;;;;41.30;17.90;;;6.10;79.90;;;;;;5113604;28;20031;-64
2021/04/04 00:25:04;;;;;;;32.93;18.37;;;6.20;80.20;;;;;;5113449;28;20039;-65
2021/04/04 00:27:30;;;;;;;29.63;11.43;;;6.20;80.30;;;;;;5113595;28;20047;-65
2021/04/04 00:29:56;;;;;;;26.70;9.60;;;6.30;80.30;;;;;;5095298;28;20028;-64
2021/04/04 00:32:21;;;;;;;35.87;10.87;;;6.30;80.00;;;;;;5112462;28;20039;-65
2021/04/04 00:34:47;;;;;;;31.73;11.30;;;6.30;80.00;;;;;;5113720;28;20036;-65
2021/04/04 00:37:13;;;;;;;30.57;9.20;;;6.30;80.20;;;;;;5094778;28;20036;-65
2021/04/04 00:39:39;;;;;;;33.40;15.13;;;6.30;80.00;;;;;;5095381;28;20452;-65
2021/04/04 00:42:05;;;;;;;30.77;9.80;;;6.30;80.10;;;;;;5113050;28;20058;-65
2021/04/04 00:44:31;;;;;;;25.87;8.57;;;6.40;79.90;;;;;;5094641;28;20495;-65
2021/04/04 00:46:56;;;;;;;24.07;7.70;;;6.30;79.60;;;;;;5113187;28;20042;-65
2021/04/04 00:49:22;;;;;;;29.30;10.90;;;6.30;79.90;;;;;;5113049;28;20036;-65
2021/04/04 00:51:48;;;;;;;23.00;8.63;;;6.30;80.00;;;;;;5112744;28;20035;-65
2021/04/04 00:54:17;;;;;;;22.97;8.77;;;6.40;80.20;;;;;;5095620;28;20036;-65
2021/04/04 00:56:43;;;;;;;26.63;7.63;;;6.40;80.20;;;;;;5112713;28;20407;-65
2021/04/04 00:59:10;;;;;;;24.13;7.90;;;6.40;80.10;;;;;;5094876;28;20039;-65
2021/04/04 01:01:36;;;;;;;25.17;7.77;;;6.40;79.60;;;;;;5111981;28;20403;-64
2021/04/04 01:04:01;;;;;;;22.73;7.57;;;6.40;79.20;;;;;;5113089;28;20057;-64
2021/04/04 01:06:27;;;;;;;20.77;7.63;;;6.30;79.00;;;;;;5112888;28;20040;-65
2021/04/04 01:08:53;;;;;;;18.63;7.73;;;6.20;79.10;;;;;;5094603;28;20527;-65
2021/04/04 01:11:40;;;;;;;29.27;7.97;;;6.10;78.90;;;;;;5094152;28;20403;-64
2021/04/04 01:14:30;;;;;;;21.83;7.93;;;6.00;78.90;;;;;;5094200;28;20491;-65
2021/04/04 01:17:01;;;;;;;24.43;8.43;;;6.00;79.10;;;;;;5112423;28;20093;-64
2021/04/04 01:19:55;;;;;;;26.37;7.83;;;5.90;78.80;;;;;;5112692;28;20042;-64
2021/04/04 01:22:54;;;;;;;28.27;7.83;;;5.70;78.70;;;;;;5112029;28;20046;-64
2021/04/04 01:25:41;;;;;;;21.90;7.40;;;5.60;79.00;;;;;;5112101;28;20399;-65
2021/04/04 01:28:42;;;;;;;22.57;7.67;;;5.50;79.10;;;;;;5112594;28;20057;-65
2021/04/04 01:31:09;;;;;;;22.92;7.95;;;5.40;79.20;;;;;;5096625;28;20047;-66
2021/04/04 01:33:37;;;;;;;26.37;9.33;;;5.30;79.00;;;;;;5094369;28;20032;-64
2021/04/04 01:36:07;;;;;;;25.63;8.00;;;5.20;79.00;;;;;;5111827;28;20059;-65
2021/04/04 01:38:38;;;;;;;25.75;7.75;;;5.10;79.10;;;;;;5094278;28;20034;-65
2021/04/04 01:41:31;;;;;;;27.07;8.57;;;5.00;79.10;;;;;;5092955;28;20484;-65
2021/04/04 01:44:04;;;;;;;26.50;8.90;;;5.00;79.30;;;;;;5112268;28;20497;-64
2021/04/04 01:46:32;;;;;;;23.67;7.87;;;4.90;79.40;;;;;;5111705;28;20051;-64
2021/04/04 01:48:58;;;;;;;28.67;9.47;;;4.80;79.50;;;;;;5094098;28;20028;-64
2021/04/04 01:51:26;;;;;;;29.17;9.70;;;4.70;79.70;;;;;;5092894;28;20046;-65
2021/04/04 01:53:54;;;;;;;23.47;8.33;;;4.70;80.00;;;;;;5076921;28;20043;-64
2021/04/04 01:56:20;;;;;;;25.77;8.80;;;4.80;80.30;;;;;;5093317;28;20039;-65
2021/04/04 01:58:47;;;;;;;24.13;8.37;;;4.80;80.80;;;;;;5112070;28;20032;-64
2021/04/04 02:01:14;;;;;;;19.97;7.63;;;4.80;81.30;;;;;;5111277;28;20036;-65
2021/04/04 02:03:42;;;;;;;28.33;9.10;;;4.90;81.80;;;;;;5111290;28;20391;-64
2021/04/04 02:06:10;;;;;;;23.27;8.60;;;5.00;82.00;;;;;;5093463;28;20047;-65
2021/04/04 02:08:36;;;;;;;27.03;8.70;;;5.10;82.30;;;;;;5111398;28;20040;-65
2021/04/04 02:11:04;;;;;;;24.63;9.33;;;5.20;82.20;;;;;;5093090;28;20384;-64
2021/04/04 02:13:30;;;;;;;24.90;8.27;;;5.30;82.30;;;;;;5111375;28;20556;-64
2021/04/04 02:15:59;;;;;;;21.70;8.30;;;5.40;82.20;;;;;;5093384;28;20411;-65
2021/04/04 02:18:25;;;;;;;27.57;9.07;;;5.50;82.20;;;;;;5111591;28;20043;-65
2021/04/04 02:20:54;;;;;;;23.40;7.83;;;5.50;82.20;;;;;;5110739;28;20114;-65
2021/04/04 02:23:22;;;;;;;24.80;8.50;;;5.50;82.10;;;;;;5111663;28;20380;-65
2021/04/04 02:25:51;;;;;;;25.70;8.17;;;5.60;82.10;;;;;;5111468;28;20035;-64
2021/04/04 02:28:17;;;;;;;27.77;7.77;;;5.60;82.10;;;;;;5092969;28;20119;-65
2021/04/04 02:30:43;;;;;;;22.97;7.90;;;5.60;81.60;;;;;;5111034;28;20119;-64
2021/04/04 02:33:18;;;;;;;25.43;7.67;;;5.60;81.90;;;;;;5110984;28;20431;-65
2021/04/04 02:35:45;;;;;;;23.70;7.97;;;5.60;81.90;;;;;;5111514;28;20127;-65
2021/04/04 02:38:18;;;;;;;28.23;7.50;;;5.60;81.90;;;;;;5110922;28;20036;-64
2021/04/04 02:40:46;;;;;;;26.10;7.90;;;5.60;81.50;;;;;;5111045;28;20032;-65
2021/04/04 02:43:20;;;;;;;25.73;8.00;;;5.50;81.70;;;;;;5109937;28;20035;-64
2021/04/04 02:45:49;;;;;;;19.63;7.03;;;5.50;81.90;;;;;;5124646;22;20445;-67
2021/04/04 02:48:17;;;;;;;22.83;7.67;;;5.50;81.60;;;;;;5069992;28;20090;-67
2021/04/04 02:50:45;;;;;;;18.30;6.87;;;5.50;81.50;;;;;;5070123;28;20047;-67
2021/04/04 02:53:12;;;;;;;24.53;7.47;;;5.50;81.80;;;;;;5052770;28;20041;-67
2021/04/04 02:55:39;;;;;;;19.23;6.53;;;5.50;82.10;;;;;;5070182;28;20041;-67
2021/04/04 02:58:07;;;;;;;20.23;7.10;;;5.50;82.20;;;;;;5070562;28;20069;-67
2021/04/04 03:00:36;;;;;;;24.33;7.23;;;5.50;82.10;;;;;;5069741;28;20040;-68
2021/04/04 03:03:05;;;;;;;22.97;7.00;;;5.50;81.80;;;;;;5070733;28;20029;-67
2021/04/04 03:05:31;;;;;;;25.70;7.73;;;5.60;81.60;;;;;;5070615;28;20040;-66
2021/04/04 03:08:00;;;;;;;25.60;7.40;;;5.50;81.60;;;;;;5070209;28;20086;-66
2021/04/04 03:10:25;;;;;;;19.90;7.40;;;5.50;81.50;;;;;;5070184;28;20041;-66
2021/04/04 03:12:52;;;;;;;17.17;6.73;;;5.50;81.70;;;;;;5051994;28;20060;-67
2021/04/04 03:15:19;;;;;;;19.67;6.90;;;5.50;81.70;;;;;;5070464;28;20193;-67
2021/04/04 03:17:48;;;;;;;22.10;7.20;;;5.50;81.40;;;;;;5052594;28;20123;-66
2021/04/04 03:20:15;;;;;;;25.13;7.13;;;5.50;81.40;;;;;;5051859;28;20120;-66
2021/04/04 03:22:44;;;;;;;21.00;6.80;;;5.40;81.30;;;;;;5070117;28;20040;-67
2021/04/04 03:25:11;;;;;;;20.97;6.77;;;5.40;81.30;;;;;;5069820;28;20085;-65
2021/04/04 03:27:39;;;;;;;21.00;6.70;;;5.30;81.70;;;;;;5070275;28;20032;-67
2021/04/04 03:30:06;;;;;;;20.63;6.90;;;5.30;81.40;;;;;;5035161;28;20040;-68
2021/04/04 03:32:37;;;;;;;28.03;8.00;;;5.30;81.00;;;;;;5069835;28;20191;-67
2021/04/04 03:35:04;;;;;;;;;;;5.20;80.90;;;;;;5052901;28;20488;-67
2021/04/04 03:37:31;;;;;;;25.07;8.00;;;5.10;81.00;;;;;;5069912;28;19912;-65
2021/04/04 03:39:57;;;;;;;29.57;7.93;;;5.00;80.90;;;;;;5052247;28;20048;-67
2021/04/04 03:42:26;;;;;;;30.23;8.93;;;5.00;81.00;;;;;;5069470;28;20036;-67
2021/04/04 03:44:57;;;;;;;23.80;7.40;;;4.90;81.30;;;;;;5070021;28;20032;-67
2021/04/04 03:47:23;;;;;;;24.57;6.93;;;4.90;81.70;;;;;;5069980;28;20123;-66
2021/04/04 03:49:49;;;;;;;27.70;7.80;;;4.90;82.00;;;;;;5035135;28;20112;-67
2021/04/04 03:52:16;;;;;;;29.10;7.73;;;4.90;82.10;;;;;;5069672;28;20041;-67
2021/04/04 03:54:43;;;;;;;25.77;7.13;;;4.90;82.00;;;;;;5072676;28;20405;-66
2021/04/04 03:57:10;;;;;;;23.33;7.30;;;4.90;81.80;;;;;;5055705;28;20040;-66
2021/04/04 03:59:39;;;;;;;24.97;6.93;;;4.90;81.80;;;;;;5073698;28;20032;-66
2021/04/04 04:02:06;;;;;;;22.97;7.47;;;4.80;81.80;;;;;;5072804;28;20665;-66
2021/04/04 04:04:32;;;;;;;28.27;7.27;;;4.80;81.90;;;;;;5073531;28;20071;-68
2021/04/04 04:06:59;;;;;;;26.53;7.33;;;4.70;82.30;;;;;;5072990;28;20039;-65
2021/04/04 04:09:26;;;;;;;21.73;7.03;;;4.70;82.90;;;;;;5073424;28;20090;-67
2021/04/04 04:11:54;;;;;;;23.90;7.40;;;4.80;82.90;;;;;;5072467;28;20033;-67
2021/04/04 04:14:21;;;;;;;28.47;7.60;;;4.80;83.00;;;;;;5055596;28;20048;-67
2021/04/04 04:16:47;;;;;;;23.20;6.70;;;4.80;82.90;;;;;;5055364;28;20515;-67
2021/04/04 04:19:15;;;;;;;22.47;7.40;;;4.80;82.80;;;;;;5054918;28;20041;-66
2021/04/04 04:21:41;;;;;;;22.90;7.23;;;4.80;83.40;;;;;;5054742;28;20460;-67
2021/04/04 04:24:12;;;;;;;32.27;8.00;;;4.90;83.10;;;;;;5072823;28;20046;-67
2021/04/04 04:26:43;;;;;;;24.90;7.70;;;4.90;83.10;;;;;;5055562;28;20044;-67
2021/04/04 04:29:11;;;;;;;29.30;8.27;;;4.90;83.00;;;;;;5073126;28;20041;-67
2021/04/04 04:31:40;;;;;;;26.37;7.00;;;5.00;83.30;;;;;;5053999;28;20477;-66
2021/04/04 04:34:07;;;;;;;23.13;7.00;;;5.00;83.00;;;;;;5073066;28;20511;-67
2021/04/04 04:36:35;;;;;;;25.23;6.80;;;5.00;83.30;;;;;;5054455;28;20028;-67
2021/04/04 04:39:04;;;;;;;21.03;6.40;;;5.10;83.10;;;;;;5072899;28;20078;-67
2021/04/04 04:41:33;;;;;;;24.87;6.80;;;5.10;83.20;;;;;;5071769;28;20044;-67
2021/04/04 04:44:01;;;;;;;21.87;6.77;;;5.20;83.50;;;;;;5072914;28;20041;-66
2021/04/04 04:46:28;;;;;;;26.50;7.40;;;5.20;83.40;;;;;;5072146;28;20121;-67
2021/04/04 04:48:54;;;;;;;22.70;7.10;;;5.20;83.10;;;;;;5072773;28;20132;-66
2021/04/04 04:51:21;;;;;;;22.40;6.87;;;5.30;83.20;;;;;;5054096;28;20048;-67
2021/04/04 04:53:48;;;;;;;24.93;7.07;;;5.30;82.70;;;;;;5072161;28;20094;-65
2021/04/04 04:56:15;;;;;;;23.70;7.30;;;5.20;82.70;;;;;;5072597;28;20123;-66
2021/04/04 04:58:42;;;;;;;22.67;6.87;;;5.20;83.20;;;;;;5072505;28;20036;-66
2021/04/04 05:01:11;;;;;;;23.97;6.67;;;5.30;83.40;;;;;;5071514;28;20044;-67
2021/04/04 05:03:37;;;;;;;16.93;6.00;;;5.30;83.20;;;;;;5054661;28;20392;-68
2021/04/04 05:06:09;;;;;;;20.23;6.20;;;5.30;82.80;;;;;;5070954;28;20040;-66
2021/04/04 05:08:36;;;;;;;26.37;6.80;;;5.30;82.70;;;;;;5038305;28;20440;-67
2021/04/04 05:11:05;;;;;;;23.80;6.30;;;5.30;82.80;;;;;;5071381;28;20082;-65
2021/04/04 05:13:31;;;;;;;26.63;7.37;;;5.30;83.70;;;;;;5072130;28;20036;-67
2021/04/04 05:15:58;;;;;;;17.07;5.57;;;5.30;83.10;;;;;;5072299;28;20059;-67
2021/04/04 05:18:23;;;;;;;22.77;6.23;;;5.40;83.10;;;;;;5071735;28;20036;-66
2021/04/04 05:20:49;;;;;;;24.50;6.03;;;5.40;82.80;;;;;;5053598;28;20408;-67
2021/04/04 05:23:22;;;;;;;20.50;6.60;;;5.40;82.90;;;;;;5037245;28;20083;-68
2021/04/04 05:25:49;;;;;;;21.53;7.57;;;5.50;82.90;;;;;;5072005;28;20040;-67
2021/04/04 05:28:15;;;;;;;23.10;6.53;;;5.50;82.60;;;;;;5073591;28;20127;-66
2021/04/04 05:30:40;;;;;;;23.37;6.30;;;5.50;82.50;;;;;;5071828;28;20123;-66
2021/04/04 05:33:06;;;;;;;22.53;5.83;;;5.50;82.40;;;;;;5053934;28;20531;-67
2021/04/04 05:35:37;;;;;;;24.47;6.50;;;5.50;82.60;;;;;;5071512;28;20040;-68
2021/04/04 05:38:04;;;;;;;28.83;5.30;;;5.50;82.70;;;;;;5037582;28;20032;-66
2021/04/04 05:40:30;;;;;;;19.33;5.63;;;5.50;82.50;;;;;;5071459;28;20420;-65
2021/04/04 05:43:02;;;;;;;19.63;4.90;;;5.60;82.70;;;;;;5070930;28;20024;-66
2021/04/04 05:45:51;;;;;;;19.50;4.80;;;5.60;82.30;;;;;;5071537;28;20099;-66
2021/04/04 05:48:58;;;;;;;15.60;4.60;;;5.70;82.30;;;;;;5053587;28;20110;-66
2021/04/04 05:51:29;;;;;;;19.77;4.63;;;5.70;82.10;;;;;;5036133;28;20119;-67
2021/04/04 05:54:19;;;;;;;18.73;4.13;;;5.80;82.10;;;;;;5053629;28;20124;-65
2021/04/04 05:56:49;;;;;;;19.50;4.57;;;5.80;82.10;;;;;;5071000;28;20063;-67
2021/04/04 05:59:39;;;;;;;19.88;4.28;;;5.90;81.90;;;;;;5071273;28;20043;-66
2021/04/04 06:02:49;;;;;;;15.93;4.50;;;6.00;81.90;;;;;;5035034;28;20037;-67
2021/04/04 06:05:34;;;;;;;18.47;3.90;;;6.00;81.70;;;;;;5071069;28;20271;-65
2021/04/04 06:08:15;;;;;;;16.60;4.17;;;6.10;81.70;;;;;;5070753;28;20403;-65
2021/04/04 06:11:26;;;;;;;18.75;4.72;;;6.20;81.50;;;;;;5036167;28;20488;-66
2021/04/04 06:14:09;;;;;;;18.97;3.90;;;6.30;80.80;;;;;;5039176;28;20560;-66
2021/04/04 06:16:53;;;;;;;18.13;3.50;;;6.30;80.50;;;;;;5070677;28;20037;-66
2021/04/04 06:19:43;;;;;;;17.00;3.90;;;6.30;80.90;;;;;;5071190;28;20040;-73
2021/04/04 06:22:33;;;;;;;12.63;3.28;;;6.30;80.40;;;;;;5070486;28;20120;-72
2021/04/04 06:25:21;;;;;;;15.37;3.47;;;6.40;80.50;;;;;;5036274;28;20497;-72
2021/04/04 06:27:53;;;;;;;15.30;3.80;;;6.50;80.50;;;;;;5071275;28;20332;-73
2021/04/04 06:30:46;;;;;;;16.00;3.40;;;6.60;80.80;;;;;;5070666;28;20032;-73
2021/04/04 06:33:21;;;;;;;17.77;3.70;;;6.70;80.60;;;;;;5070933;28;20051;-64
2021/04/04 06:36:14;;;;;;;16.30;4.03;;;6.80;79.80;;;;;;5071297;28;20111;-65
2021/04/04 06:39:07;;;;;;;16.20;3.53;;;6.80;79.20;;;;;;5071107;28;20411;-64
2021/04/04 06:41:53;;;;;;;18.60;3.97;;;6.80;79.30;;;;;;5070204;28;20090;-65
2021/04/04 06:44:56;;;;;;;15.93;3.80;;;6.90;78.80;;;;;;5070856;28;20459;-65
2021/04/04 06:47:44;;;;;;;18.40;4.00;;;6.90;79.00;;;;;;5052313;28;20037;-64
2021/04/04 06:50:10;;;;;;;17.57;3.60;;;6.90;79.20;;;;;;5069947;28;20033;-65
2021/04/04 06:52:56;;;;;;;15.60;3.57;;;7.00;79.10;;;;;;5052682;28;20098;-65
2021/04/04 06:55:38;;;;;;;16.07;3.30;;;7.10;78.60;;;;;;5070119;28;20037;-66
2021/04/04 06:58:15;;;;;;;14.60;3.10;;;7.10;78.10;;;;;;5052854;28;20036;-65
2021/04/04 07:01:11;;;;;;;14.27;3.43;;;7.10;77.50;;;;;;5070026;28;20399;-67
2021/04/04 07:03:49;;;;;;;13.23;3.30;;;7.10;77.50;;;;;;5052190;28;20095;-67
2021/04/04 07:06:37;;;;;;;22.17;3.73;;;7.10;77.30;;;;;;5052548;28;20041;-66
2021/04/04 07:09:29;;;;;;;12.13;3.10;;;7.10;77.00;;;;;;5052418;28;20043;-66
2021/04/04 07:12:09;;;;;;;15.03;3.60;;;7.10;77.00;;;;;;5069585;28;20503;-66
2021/04/04 07:15:07;;;;;;;17.23;3.83;;;7.10;76.70;;;;;;5070676;28;20036;-65
2021/04/04 07:17:42;;;;;;;13.43;3.10;;;7.10;76.90;;;;;;5050878;28;20408;-67
2021/04/04 07:20:19;;;;;;;13.40;2.80;;;7.10;77.30;;;;;;5070324;28;20447;-66
2021/04/04 07:23:29;;;;;;;14.80;3.57;;;7.20;76.80;;;;;;5070049;28;20032;-64
2021/04/04 07:26:04;;;;;;;18.30;3.20;;;7.30;76.90;;;;;;5044376;28;20404;-65
2021/04/04 07:28:42;;;;;;;17.43;3.60;;;7.40;76.60;;;;;;5053772;28;20721;-64
2021/04/04 07:31:12;;;;;;;14.60;3.93;;;7.40;76.10;;;;;;5038323;28;20048;-72
2021/04/04 07:34:17;;;;;;;17.00;4.10;;;7.40;76.10;;;;;;5092873;28;20044;-72
2021/04/04 07:37:03;;;;;;;16.27;3.97;;;7.40;75.90;;;;;;4972324;28;20038;-73
2021/04/04 07:39:44;;;;;;;15.77;4.00;;;7.40;75.80;;;;;;5085960;28;20036;-74
2021/04/04 07:42:33;;;;;;;17.52;4.07;;;7.30;75.40;;;;;;5054433;28;20047;-73
2021/04/04 07:45:31;;;;;;;18.63;4.13;;;7.10;75.80;;;;;;5093447;28;20492;-72
2021/04/04 07:48:23;;;;;;;11.33;3.77;;;7.00;76.60;;;;;;5091853;28;20047;-72
2021/04/04 07:51:15;;;;;;;21.80;4.60;;;7.10;76.70;;;;;;5091539;28;20031;-73
2021/04/04 07:54:08;;;;;;;17.80;4.60;;;7.10;77.20;;;;;;5092720;28;20050;-73
2021/04/04 07:56:55;;;;;;;15.07;4.20;;;7.10;77.20;;;;;;5063601;28;20084;-71
2021/04/04 07:59:47;;;;;;;16.07;5.10;;;7.10;77.20;;;;;;5092507;28;20385;-73
2021/04/04 08:02:21;;;;;;;16.37;4.73;;;7.20;77.30;;;;;;5089151;28;20074;-72
2021/04/04 08:04:50;;;;;;;13.90;5.07;;;7.30;77.50;;;;;;5090641;28;20066;-73
2021/04/04 08:07:24;;;;;;;16.47;4.90;;;7.30;77.20;;;;;;5092632;28;20507;-73
2021/04/04 08:10:25;;;;;;;18.60;5.30;;;7.30;76.40;;;;;;5070455;28;20036;-73
2021/04/04 08:12:56;;;;;;;20.02;5.43;;;7.20;76.90;;;;;;5088390;28;20064;-73
2021/04/04 08:15:26;;;;;;;18.03;6.87;;;7.20;77.50;;;;;;5093141;28;20446;-74
2021/04/04 08:17:52;;;;;;;16.95;4.85;;;7.20;77.80;;;;;;5074682;28;20081;-71
2021/04/04 08:20:43;;;;;;;21.40;5.67;;;7.30;77.80;;;;;;5094277;28;20036;-73
2021/04/04 08:23:52;;;;;;;17.07;4.90;;;7.40;77.50;;;;;;5094642;28;20044;-74
2021/04/04 08:26:27;;;;;;;19.63;5.47;;;7.40;77.60;;;;;;5010965;28;20075;-73
2021/04/04 08:29:09;;;;;;;18.30;5.80;;;7.50;77.10;;;;;;5011310;28;20107;-72
2021/04/04 08:32:03;;;;;;;19.97;6.30;;;7.50;77.10;;;;;;5047611;28;20051;-74
2021/04/04 08:34:37;;;;;;;17.63;5.53;;;7.30;77.10;;;;;;5073121;28;20036;-73
2021/04/04 08:37:22;;;;;;;16.80;5.37;;;7.40;77.80;;;;;;5093116;28;20396;-73
2021/04/04 08:39:53;;;;;;;18.40;6.30;;;7.50;78.30;;;;;;5088720;28;20502;-74
2021/04/04 08:42:20;;;;;;;17.50;5.93;;;7.60;77.90;;;;;;5092433;28;20046;-73
2021/04/04 08:44:53;;;;;;;16.23;5.60;;;7.60;77.50;;;;;;5092577;28;20391;-72
2021/04/04 08:47:33;;;;;;;17.83;5.87;;;7.60;77.70;;;;;;5084691;22;737453;-68
2021/04/04 08:50:05;;;;;;;17.83;5.40;;;7.70;77.80;;;;;;5090528;28;20050;-69
2021/04/04 08:52:36;;;;;;;13.53;4.90;;;7.80;77.90;;;;;;5052638;28;20040;-68
2021/04/04 08:55:03;;;;;;;16.10;5.47;;;7.90;77.00;;;;;;5052132;28;20033;-69
2021/04/04 08:57:43;;;;;;;16.40;5.10;;;7.80;76.80;;;;;;5051396;28;20588;-68
2021/04/04 09:00:12;;;;;;;13.43;4.90;;;7.90;77.10;;;;;;5057158;28;20082;-69
2021/04/04 09:02:43;;;;;;;23.50;5.60;;;8.00;77.00;;;;;;5073942;28;20388;-68
2021/04/04 09:05:09;;;;;;;16.77;5.73;;;8.10;76.50;;;;;;5091935;28;20044;-67
2021/04/04 09:07:41;;;;;;;15.67;4.77;;;8.00;75.60;;;;;;5074547;28;20040;-69
2021/04/04 09:10:11;;;;;;;14.77;4.70;;;7.90;76.00;;;;;;5091874;28;20048;-68
2021/04/04 09:12:40;;;;;;;13.90;5.00;;;7.90;76.90;;;;;;5057017;28;20102;-67
2021/04/04 09:15:07;;;;;;;14.17;4.00;;;8.00;76.30;;;;;;5091404;28;20035;-68
2021/04/04 09:17:33;;;;;;;13.17;3.87;;;8.00;76.20;;;;;;5092417;28;20582;-69
2021/04/04 09:20:02;;;;;;;13.37;3.73;;;8.10;76.70;;;;;;5074217;28;20394;-68
2021/04/04 09:22:29;;;;;;;13.87;3.90;;;8.20;76.70;;;;;;5091703;28;20058;-70
2021/04/04 09:24:59;;;;;;;13.90;4.20;;;8.30;75.90;;;;;;5091916;28;20024;-69
2021/04/04 09:27:33;;;;;;;11.38;3.35;;;8.40;75.60;;;;;;5073635;28;20028;-69
2021/04/04 09:30:01;;;;;;;11.63;3.33;;;8.40;75.10;;;;;;5073774;28;20541;-69
2021/04/04 09:32:45;;;;;;;13.43;3.20;;;8.40;75.00;;;;;;5073333;28;20032;-67
2021/04/04 09:35:16;;;;;;;11.90;3.10;;;8.40;74.60;;;;;;5092039;28;20119;-68
2021/04/04 09:37:44;;;;;;;11.97;3.10;;;8.40;74.30;;;;;;5091603;28;20051;-69
2021/04/04 09:40:11;;;;;;;13.03;3.40;;;8.40;75.10;;;;;;5073233;28;20134;-68
2021/04/04 09:42:38;;;;;;;11.53;3.27;;;8.60;75.30;;;;;;5073895;28;20032;-67
2021/04/04 09:45:20;;;;;;;11.27;2.80;;;8.80;74.90;;;;;;5073707;28;20530;-69
2021/04/04 09:47:48;;;;;;;10.93;2.70;;;9.00;75.10;;;;;;5091188;28;20052;-68
2021/04/04 09:50:25;;;;;;;10.93;2.30;;;9.20;74.40;;;;;;5073518;28;20044;-69
2021/04/04 09:52:52;;;;;;;11.47;3.03;;;9.30;73.60;;;;;;5072595;28;20028;-67
2021/04/04 09:55:22;;;;;;;12.40;2.60;;;9.30;72.20;;;;;;5091559;28;20119;-67
2021/04/04 09:57:51;;;;;;;10.77;2.78;;;9.20;72.20;;;;;;5072015;28;20035;-66
2021/04/04 10:00:25;;;;;;;10.50;2.90;;;9.20;72.20;;;;;;5089343;28;20028;-68
2021/04/04 10:02:52;;;;;;;9.90;2.67;;;9.20;72.50;;;;;;5091142;28;20135;-69
2021/04/04 10:05:26;;;;;;;10.80;2.73;;;9.20;72.10;;;;;;5090932;28;20048;-69
2021/04/04 10:07:52;;;;;;;12.23;3.07;;;9.20;71.70;;;;;;5091573;28;20037;-69
2021/04/04 10:10:31;;;;;;;9.57;2.70;;;9.20;71.80;;;;;;5090624;28;20032;-68
2021/04/04 10:12:58;;;;;;;10.43;2.63;;;9.20;71.40;;;;;;5033426;28;20029;-69
2021/04/04 10:15:24;;;;;;;13.90;2.97;;;9.10;71.20;;;;;;5033097;28;20040;-69
2021/04/04 10:17:55;;;;;;;14.63;2.80;;;9.00;71.20;;;;;;5051225;28;20041;-68
2021/04/04 10:20:52;;;;;;;12.10;2.72;;;9.00;71.20;;;;;;5056889;28;20123;-67
2021/04/04 10:23:19;;;;;;;16.70;2.63;;;9.00;70.80;;;;;;5054756;28;20046;-68
2021/04/04 10:26:05;;;;;;;11.47;2.60;;;8.90;70.40;;;;;;5073103;28;20043;-61
2021/04/04 10:28:56;;;;;;;11.87;2.70;;;8.70;70.80;;;;;;5068790;28;20039;-62
2021/04/04 10:31:24;;;;;;;10.07;2.05;;;8.70;71.10;;;;;;5090108;28;20054;-62
2021/04/04 10:33:59;;;;;;;9.97;2.37;;;8.70;71.40;;;;;;5072852;28;20028;-62
2021/04/04 10:36:27;;;;;;;11.50;2.47;;;8.70;70.90;;;;;;5072898;28;20043;-62
2021/04/04 10:38:53;;;;;;;10.40;2.43;;;8.70;70.60;;;;;;5090300;28;20028;-62
2021/04/04 10:41:33;;;;;;;8.63;2.20;;;8.60;71.10;;;;;;5090974;28;20028;-62
2021/04/04 10:43:59;;;;;;;13.17;2.60;;;8.70;71.90;;;;;;5068193;28;20039;-62
2021/04/04 10:46:31;;;;;;;13.83;2.43;;;8.90;71.80;;;;;;5073296;28;20040;-62
2021/04/04 10:48:59;;;;;;;9.60;2.57;;;9.00;71.50;;;;;;5068535;28;20040;-63
2021/04/04 10:51:26;;;;;;;9.40;2.20;;;9.20;71.60;;;;;;5091366;28;20507;-63
2021/04/04 10:53:51;;;;;;;9.70;2.20;;;9.40;71.40;;;;;;5073379;28;20105;-62
2021/04/04 10:56:17;;;;;;;11.87;2.73;;;9.60;71.10;;;;;;5090523;28;20036;-63
2021/04/04 10:58:45;;;;;;;8.60;2.30;;;9.60;70.20;;;;;;5072566;28;20456;-62
2021/04/04 11:01:13;;;;;;;10.40;2.23;;;9.70;69.50;;;;;;5089710;28;20028;-63
2021/04/04 11:03:40;;;;;;;10.53;2.17;;;9.70;68.60;;;;;;5092091;28;20484;-62
2021/04/04 11:06:06;;;;;;;8.13;2.00;;;9.60;68.40;;;;;;5076429;28;20044;-63
2021/04/04 11:08:32;;;;;;;9.20;2.00;;;9.50;68.80;;;;;;5076152;28;20077;-62
2021/04/04 11:10:59;;;;;;;11.57;2.20;;;9.60;68.90;;;;;;5094396;28;20032;-63
2021/04/04 11:13:25;;;;;;;11.60;2.27;;;9.70;68.40;;;;;;5094065;28;20047;-63
2021/04/04 11:16:02;;;;;;;11.90;2.13;;;9.70;67.70;;;;;;5094619;28;20036;-65
2021/04/04 11:18:47;;;;;;;11.03;2.40;;;9.70;67.70;;;;;;5094418;28;20043;-65
2021/04/04 11:21:17;;;;;;;13.47;2.50;;;9.70;67.30;;;;;;5075876;28;20047;-64
2021/04/04 11:23:44;;;;;;;12.35;2.85;;;9.60;67.20;;;;;;5094095;28;20040;-65
2021/04/04 11:26:31;;;;;;;11.40;2.37;;;9.60;67.50;;;;;;5094038;28;20044;-64
2021/04/04 11:29:14;;;;;;;11.17;2.23;;;9.60;67.00;;;;;;5094483;28;20024;-65
2021/04/04 11:31:41;;;;;;;12.77;2.40;;;9.60;67.00;;;;;;5072276;28;20031;-70
2021/04/04 11:34:26;;;;;;;9.43;1.90;;;9.50;67.00;;;;;;5075923;28;20044;-65
2021/04/04 11:36:53;;;;;;;8.73;1.80;;;9.50;67.00;;;;;;5092998;28;20557;-66
2021/04/04 11:39:19;;;;;;;9.37;2.07;;;9.50;67.60;;;;;;5075564;28;20559;-65
2021/04/04 11:41:53;;;;;;;10.23;1.90;;;9.70;68.00;;;;;;5093028;28;20422;-65
2021/04/04 11:44:31;;;;;;;8.73;1.93;;;9.90;67.80;;;;;;5056888;28;20058;-65
2021/04/04 11:47:04;;;;;;;11.33;2.10;;;10.10;66.60;;;;;;5093054;28;20058;-64
2021/04/04 11:49:30;;;;;;;11.25;2.28;;;10.20;66.80;;;;;;5075641;28;20104;-64
2021/04/04 11:51:56;;;;;;;10.73;2.03;;;10.30;66.40;;;;;;5092945;28;20119;-65
2021/04/04 11:54:41;;;;;;;10.68;2.10;;;10.30;65.70;;;;;;5093136;28;20043;-65
2021/04/04 11:57:07;;;;;;;13.32;2.30;;;10.30;65.90;;;;;;5092836;28;20043;-66
2021/04/04 11:59:33;;;;;;;8.75;1.98;;;10.30;65.10;;;;;;5093389;28;20062;-65
2021/04/04 12:01:58;;;;;;;11.63;2.47;;;10.10;64.80;;;;;;5093284;28;20440;-65
2021/04/04 12:04:37;;;;;;;11.02;2.17;;;10.00;64.70;;;;;;5058207;28;20146;-64
2021/04/04 12:07:17;;;;;;;8.15;1.90;;;10.00;65.20;;;;;;5093392;28;20523;-64
2021/04/04 12:09:45;;;;;;;9.52;2.17;;;9.90;65.40;;;;;;5075208;28;20032;-64
2021/04/04 12:12:12;;;;;;;3.85;1.38;;;9.90;65.10;;;;;;5093044;28;20088;-65
2021/04/04 12:14:47;;;;;;;5.35;1.50;;;9.90;65.10;;;;;;5092388;28;20712;-64
2021/04/04 12:17:14;;;;;;;12.80;1.90;;;9.90;65.60;;;;;;5092956;28;20088;-64
2021/04/04 12:19:42;;;;;;;7.20;1.60;;;9.90;65.00;;;;;;5092739;28;20036;-65
2021/04/04 12:22:09;;;;;;;7.97;1.80;;;9.90;65.00;;;;;;5057422;28;20043;-64
2021/04/04 12:24:51;;;;;;;7.80;1.90;;;9.70;64.40;;;;;;5093011;28;20040;-65
2021/04/04 12:27:26;;;;;;;10.27;2.10;;;9.50;64.80;;;;;;5092668;28;20084;-65
2021/04/04 12:29:54;;;;;;;6.63;1.60;;;9.30;65.20;;;;;;5092180;28;20050;-64
2021/04/04 12:32:23;;;;;;;8.33;2.00;;;9.30;66.20;;;;;;5072691;28;20043;-66
2021/04/04 12:34:51;;;;;;;9.53;1.87;;;9.30;66.30;;;;;;5091805;28;20024;-65
2021/04/04 12:37:19;;;;;;;4.43;1.33;;;9.40;66.60;;;;;;5092117;28;20480;-65
2021/04/04 12:39:46;;;;;;;6.83;1.30;;;9.60;67.10;;;;;;5092882;28;20050;-66
2021/04/04 12:42:17;;;;;;;7.07;1.53;;;9.70;66.60;;;;;;5073896;28;20039;-65
2021/04/04 12:44:45;;;;;;;8.03;1.40;;;9.80;66.70;;;;;;5089992;28;20026;-65
2021/04/04 12:47:19;;;;;;;7.10;1.47;;;9.90;66.20;;;;;;5072594;28;20044;-66
2021/04/04 12:49:53;;;;;;;6.40;1.60;;;10.00;66.30;;;;;;5085456;28;20040;-65
2021/04/04 12:52:36;;;;;;;6.97;1.60;;;10.00;65.50;;;;;;5090333;28;20035;-66
2021/04/04 12:55:18;;;;;;;7.35;2.05;;;10.00;65.10;;;;;;5091397;28;20059;-66
2021/04/04 12:57:47;;;;;;;6.22;1.42;;;10.00;66.00;;;;;;5073187;28;20062;-66
2021/04/04 13:00:25;;;;;;;5.65;1.60;;;10.20;66.10;;;;;;5091763;28;20106;-65
2021/04/04 13:03:12;;;;;;;6.47;2.17;;;10.20;65.50;;;;;;5091526;28;20078;-65
2021/04/04 13:05:49;;;;;;;6.53;1.80;;;10.10;64.50;;;;;;5073919;28;20044;-64
2021/04/04 13:08:15;;;;;;;7.63;1.90;;;9.80;65.10;;;;;;5091776;28;20460;-66
2021/04/04 13:10:42;;;;;;;8.10;2.20;;;9.70;65.80;;;;;;5092151;28;20047;-66
2021/04/04 13:13:17;;;;;;;5.53;1.60;;;9.80;66.30;;;;;;5073854;28;20036;-65
2021/04/04 13:15:43;;;;;;;6.00;1.83;;;9.90;66.90;;;;;;5092308;28;20028;-66
2021/04/04 13:18:29;;;;;;;5.28;1.70;;;10.00;65.50;;;;;;5073258;28;20484;-65